Time;durP1;ratioP1;P1;durP2;ratioP2;P2;SDS_P1;SDS_P2;PMS_P1;PMS_P2;Temp;Humidity;BMP_temperature;BMP_pressure;BME280_temperature;BME280_humidity;BME280_pressure;Samples;Min_cycle;Max_cycle;Signal;HPM_P1;HPM_P2
2021/05/28 00:00:42;;;;;;;4.32;1.90;;;;;;;9.16;80.40;101544.75;5042861;28;20036;-66
2021/05/28 00:03:08;;;;;;;4.53;1.98;;;;;;;9.19;80.48;101539.84;5070088;28;20078;-66
2021/05/28 00:05:34;;;;;;;3.25;1.92;;;;;;;9.30;79.80;101551.75;5073765;28;20025;-66
2021/05/28 00:07:59;;;;;;;5.95;1.80;;;;;;;9.36;79.69;101548.69;5074930;28;20084;-67
2021/05/28 00:10:25;;;;;;;3.55;1.52;;;;;;;9.49;79.71;101560.72;5054603;28;20027;-67
2021/05/28 00:12:51;;;;;;;3.90;1.42;;;;;;;9.45;79.59;101558.72;5039881;28;20037;-66
2021/05/28 00:15:17;;;;;;;2.38;1.52;;;;;;;9.50;79.75;101559.94;5067641;28;20024;-66
2021/05/28 00:17:42;;;;;;;3.05;1.85;;;;;;;9.53;79.43;101562.72;5073424;28;20074;-66
2021/05/28 00:20:11;;;;;;;2.53;1.50;;;;;;;9.55;79.48;101556.00;5038231;28;20453;-66
2021/05/28 00:22:56;;;;;;;4.18;1.60;;;;;;;9.47;79.94;101560.59;5051572;28;20375;-66
2021/05/28 00:25:21;;;;;;;3.40;1.70;;;;;;;9.53;79.41;101567.84;5044264;28;20091;-66
2021/05/28 00:27:47;;;;;;;3.08;1.30;;;;;;;9.53;79.65;101567.84;5033674;28;20467;-67
2021/05/28 00:30:13;;;;;;;2.13;1.45;;;;;;;9.51;79.29;101564.28;5035521;28;20033;-67
2021/05/28 00:32:38;;;;;;;3.58;1.75;;;;;;;9.45;79.26;101569.00;5046396;28;20454;-67
2021/05/28 00:35:05;;;;;;;3.25;1.63;;;;;;;9.39;79.73;101568.59;5069089;28;20028;-67
2021/05/28 00:37:31;;;;;;;2.92;1.63;;;;;;;9.20;80.12;101572.47;5053185;28;20027;-66
2021/05/28 00:39:57;;;;;;;3.30;1.60;;;;;;;9.22;80.59;101576.03;5051527;28;20103;-67
2021/05/28 00:42:22;;;;;;;2.90;1.52;;;;;;;9.14;80.23;101572.03;5046032;28;20033;-67
2021/05/28 00:44:48;;;;;;;4.43;1.83;;;;;;;9.01;81.15;101571.19;5054906;28;20540;-67
2021/05/28 00:47:13;;;;;;;3.05;1.77;;;;;;;8.98;80.96;101576.06;5053115;28;20025;-66
2021/05/28 00:49:38;;;;;;;5.22;2.35;;;;;;;8.81;81.30;101576.56;5051294;28;20041;-66
2021/05/28 00:52:04;;;;;;;3.47;2.05;;;;;;;8.83;81.15;101575.91;5047275;28;20063;-67
2021/05/28 00:54:30;;;;;;;3.90;1.77;;;;;;;8.84;81.14;101571.63;5046057;28;20028;-67
2021/05/28 00:56:56;;;;;;;3.72;1.88;;;;;;;8.79;81.50;101583.25;5034136;28;20072;-67
2021/05/28 00:59:23;;;;;;;3.55;1.83;;;;;;;8.73;81.68;101579.47;5017250;28;20025;-66
2021/05/28 01:01:49;;;;;;;5.75;1.92;;;;;;;8.73;82.36;101579.47;5020621;28;20363;-67
2021/05/28 01:04:15;;;;;;;4.75;2.67;;;;;;;8.73;82.59;101589.75;5049072;28;20063;-67
2021/05/28 01:06:41;;;;;;;3.13;1.70;;;;;;;8.73;81.67;101589.75;5052696;28;20021;-66
2021/05/28 01:09:09;;;;;;;9.30;3.78;;;;;;;8.73;81.62;101592.31;5052548;28;20029;-66
2021/05/28 01:11:35;;;;;;;8.93;2.50;;;;;;;8.70;82.13;101584.38;5041977;28;20036;-66
2021/05/28 01:14:01;;;;;;;5.40;2.00;;;;;;;8.63;81.90;101582.16;5048524;28;20462;-67
2021/05/28 01:16:27;;;;;;;4.40;2.53;;;;;;;8.62;82.26;101590.66;5072329;28;20032;-67
2021/05/28 01:18:53;;;;;;;7.05;2.20;;;;;;;8.50;82.00;101589.75;5058584;28;20604;-67
2021/05/28 01:21:20;;;;;;;5.45;2.00;;;;;;;8.50;82.20;101600.03;5044265;28;20103;-67
2021/05/28 01:23:46;;;;;;;4.80;2.80;;;;;;;8.44;82.47;101606.47;5034892;28;20029;-67
2021/05/28 01:26:12;;;;;;;10.65;3.78;;;;;;;8.30;83.33;101609.72;5049527;28;20053;-67
2021/05/28 01:28:38;;;;;;;3.50;2.10;;;;;;;8.33;84.17;101617.63;5033558;28;20627;-67
2021/05/28 01:31:04;;;;;;;5.85;2.83;;;;;;;8.27;83.75;101614.63;5034270;28;20383;-67
2021/05/28 01:33:30;;;;;;;8.80;2.60;;;;;;;8.39;83.78;101612.94;5040541;28;20505;-67
2021/05/28 01:35:58;;;;;;;4.68;2.40;;;;;;;8.42;83.56;101622.53;5042695;28;20029;-67
2021/05/28 01:38:24;;;;;;;4.82;2.58;;;;;;;8.44;83.35;101623.53;5038330;28;20355;-66
2021/05/28 01:40:49;;;;;;;6.55;2.80;;;;;;;8.42;83.57;101618.31;5051812;28;20044;-67
2021/05/28 01:43:15;;;;;;;3.88;2.55;;;;;;;8.42;82.84;101632.81;5046136;28;20021;-67
2021/05/28 01:45:41;;;;;;;6.30;2.58;;;;;;;8.37;83.04;101624.78;5056454;28;20026;-66
2021/05/28 01:48:07;;;;;;;5.53;2.92;;;;;;;8.37;82.95;101624.78;5046260;28;20021;-66
2021/05/28 01:50:43;;;;;;;9.07;2.70;;;;;;;8.30;82.62;101627.69;5036920;28;20044;-66
2021/05/28 01:53:22;;;;;;;5.68;2.80;;;;;;;8.25;83.17;101624.75;5032325;28;20033;-66
2021/05/28 01:55:48;;;;;;;8.10;2.45;;;;;;;8.29;82.54;101631.91;5032778;28;20025;-65
2021/05/28 01:58:19;;;;;;;7.07;3.22;;;;;;;8.11;82.85;101628.88;5031281;28;20068;-66
2021/05/28 02:00:46;;;;;;;6.68;3.05;;;;;;;8.10;82.96;101629.66;5038724;28;20022;-66
2021/05/28 02:03:12;;;;;;;5.20;2.88;;;;;;;8.10;82.84;101629.66;5044210;28;20021;-66
2021/05/28 02:05:38;;;;;;;5.35;2.97;;;;;;;8.05;83.27;101638.69;5051634;28;20402;-66
2021/05/28 02:08:04;;;;;;;6.47;3.20;;;;;;;8.04;82.58;101634.31;5052994;28;20107;-66
2021/05/28 02:10:30;;;;;;;8.68;3.22;;;;;;;8.07;82.36;101649.94;5051014;28;20056;-66
2021/05/28 02:12:57;;;;;;;6.65;2.85;;;;;;;7.87;83.10;101656.13;5038386;28;20041;-67
2021/05/28 02:15:24;;;;;;;7.55;2.85;;;;;;;7.95;83.05;101649.91;5061169;28;20303;-67
2021/05/28 02:17:50;;;;;;;4.10;2.72;;;;;;;8.03;82.70;101658.19;5072537;28;20107;-67
2021/05/28 02:20:16;;;;;;;6.10;3.22;;;;;;;7.84;82.83;101651.63;5063153;28;20051;-66
2021/05/28 02:22:42;;;;;;;6.45;2.95;;;;;;;7.82;83.18;101648.06;5049559;28;20017;-66
2021/05/28 02:25:09;;;;;;;5.57;2.78;;;;;;;7.83;82.83;101652.41;5050707;28;20347;-67
2021/05/28 02:27:35;;;;;;;6.90;2.75;;;;;;;7.84;82.80;101661.03;5047322;28;20025;-67
2021/05/28 02:30:00;;;;;;;5.10;2.65;;;;;;;7.87;81.90;101666.38;5033165;28;20021;-66
2021/05/28 02:32:26;;;;;;;9.10;3.05;;;;;;;7.82;82.08;101663.44;5049746;28;20036;-66
2021/05/28 02:34:52;;;;;;;7.10;2.97;;;;;;;7.79;82.20;101663.22;5038790;28;20567;-66
2021/05/28 02:37:18;;;;;;;8.45;3.42;;;;;;;7.78;82.24;101664.00;5051369;28;20343;-67
2021/05/28 02:39:43;;;;;;;5.85;2.83;;;;;;;7.79;82.05;101668.34;5033544;28;20064;-66
2021/05/28 02:42:09;;;;;;;7.15;3.03;;;;;;;7.78;81.82;101674.25;5030807;28;20064;-66
2021/05/28 02:44:35;;;;;;;8.75;3.17;;;;;;;7.67;81.82;101667.41;5037928;28;20032;-67
2021/05/28 02:47:00;;;;;;;5.50;2.85;;;;;;;7.67;81.83;101677.66;5057511;28;20064;-67
2021/05/28 02:49:25;;;;;;;5.40;3.30;;;;;;;7.59;82.27;101684.78;5033493;28;20029;-66
2021/05/28 02:51:51;;;;;;;6.40;3.63;;;;;;;7.53;82.66;101674.91;5031544;28;20060;-67
2021/05/28 02:54:16;;;;;;;5.38;3.50;;;;;;;7.55;82.50;101683.63;5030977;28;20373;-67
2021/05/28 02:56:42;;;;;;;6.15;3.03;;;;;;;7.59;81.58;101682.22;5030912;28;20101;-66
2021/05/28 02:59:07;;;;;;;9.95;3.80;;;;;;;7.60;81.84;101695.13;5049059;28;20025;-67
2021/05/28 03:01:32;;;;;;;6.47;3.40;;;;;;;7.51;81.56;101691.84;5034211;28;20033;-66
2021/05/28 03:03:58;;;;;;;6.50;3.00;;;;;;;7.46;81.72;101698.28;5052252;28;20079;-66
2021/05/28 03:06:23;;;;;;;5.70;3.22;;;;;;;7.49;82.50;101695.97;5052392;28;20112;-66
2021/05/28 03:08:49;;;;;;;8.65;3.55;;;;;;;7.51;82.14;101701.22;5037414;28;20076;-66
2021/05/28 03:11:14;;;;;;;7.25;4.15;;;;;;;7.53;82.03;101710.81;5031881;28;20033;-66
2021/05/28 03:13:40;;;;;;;6.88;3.58;;;;;;;7.49;82.03;101703.66;5030508;28;20049;-66
2021/05/28 03:16:05;;;;;;;9.13;4.38;;;;;;;7.50;81.88;101709.69;5032017;28;20040;-67
2021/05/28 03:18:46;;;;;;;5.75;3.30;;;;;;;7.52;81.24;101714.16;5042552;28;20025;-66
2021/05/28 03:21:23;;;;;;;7.97;3.78;;;;;;;7.53;81.69;101715.94;5052002;28;20159;-66
2021/05/28 03:23:51;;;;;;;8.30;4.00;;;;;;;7.52;81.13;101724.41;5051125;28;20100;-65
2021/05/28 03:26:16;;;;;;;6.07;3.15;;;;;;;7.48;81.51;101711.25;5050601;28;20033;-66
2021/05/28 03:28:42;;;;;;;6.35;3.65;;;;;;;7.50;81.86;101723.41;5048796;28;20151;-66
2021/05/28 03:31:08;;;;;;;8.55;3.45;;;;;;;7.47;81.59;101720.59;5044865;28;20447;-66
2021/05/28 03:33:34;;;;;;;11.05;3.97;;;;;;;7.53;81.93;101726.19;5030688;28;20471;-66
2021/05/28 03:36:00;;;;;;;6.65;3.67;;;;;;;7.53;82.29;101726.19;5030849;28;20033;-66
2021/05/28 03:38:27;;;;;;;8.00;4.82;;;;;;;7.77;81.53;101731.47;5042935;28;20024;-66
2021/05/28 03:40:52;;;;;;;7.70;3.70;;;;;;;7.93;80.67;101733.56;5054107;28;20028;-66
2021/05/28 03:43:18;;;;;;;8.95;3.97;;;;;;;8.06;80.26;101735.41;5036853;28;20051;-65
2021/05/28 03:45:44;;;;;;;14.00;4.50;;;;;;;7.95;80.82;101736.22;5054257;28;20031;-66
2021/05/28 03:48:10;;;;;;;8.73;3.83;;;;;;;8.23;80.00;101738.38;5043331;28;20538;-66
2021/05/28 03:50:35;;;;;;;9.20;3.17;;;;;;;8.28;79.30;101737.94;5034198;28;20025;-66
2021/05/28 03:53:01;;;;;;;8.98;3.80;;;;;;;8.24;79.01;101741.03;5034206;28;20060;-66
2021/05/28 03:55:27;;;;;;;10.00;3.97;;;;;;;8.17;79.38;101738.78;5033976;28;20025;-66
2021/05/28 03:57:52;;;;;;;7.15;3.50;;;;;;;8.16;79.14;101737.00;5041331;28;20079;-66
2021/05/28 04:00:18;;;;;;;11.40;4.88;;;;;;;8.14;79.48;101738.53;5055063;28;20032;-66
2021/05/28 04:02:43;;;;;;;12.50;3.75;;;;;;;8.08;79.56;101744.13;5053887;28;20443;-66
2021/05/28 04:05:11;;;;;;;8.88;3.78;;;;;;;8.09;79.66;101740.78;5048967;28;20041;-65
2021/05/28 04:07:37;;;;;;;11.50;3.35;;;;;;;8.12;79.36;101741.00;5026917;28;20045;-66
2021/05/28 04:10:03;;;;;;;12.93;4.13;;;;;;;8.11;79.47;101739.22;5044422;28;20441;-66
2021/05/28 04:12:29;;;;;;;10.02;4.05;;;;;;;8.14;79.18;101734.31;5044890;28;20028;-66
2021/05/28 04:14:54;;;;;;;9.20;4.10;;;;;;;7.99;79.02;101735.72;5042401;28;20075;-66
2021/05/28 04:17:19;;;;;;;8.65;3.55;;;;;;;8.14;79.13;101744.59;5044379;28;20052;-66
2021/05/28 04:19:45;;;;;;;5.72;3.88;;;;;;;8.14;79.06;101739.47;5041942;28;20027;-67
2021/05/28 04:22:10;;;;;;;8.10;3.50;;;;;;;8.12;78.94;101741.00;5041833;28;20105;-67
2021/05/28 04:24:36;;;;;;;6.45;3.75;;;;;;;8.07;78.97;101739.75;5041057;28;20128;-67
2021/05/28 04:27:01;;;;;;;8.65;3.75;;;;;;;8.04;79.34;101739.53;5042581;28;20021;-67
2021/05/28 04:29:27;;;;;;;7.97;3.30;;;;;;;8.19;78.79;101738.13;5041593;28;20028;-66
2021/05/28 04:31:52;;;;;;;8.80;4.20;;;;;;;8.08;79.52;101744.13;5041501;28;20021;-67
2021/05/28 04:34:17;;;;;;;6.22;3.10;;;;;;;8.41;78.39;101734.63;5041463;28;20383;-66
2021/05/28 04:36:43;;;;;;;10.18;4.15;;;;;;;8.44;77.81;101741.66;5044678;28;20032;-66
2021/05/28 04:39:08;;;;;;;7.45;4.20;;;;;;;8.46;77.88;101746.13;5041450;28;20021;-66
2021/05/28 04:41:34;;;;;;;10.02;3.88;;;;;;;8.59;78.14;101754.78;5041608;28;20033;-66
2021/05/28 04:43:59;;;;;;;7.90;3.58;;;;;;;8.50;77.19;101748.97;5043607;28;20045;-66
2021/05/28 04:46:24;;;;;;;6.97;3.70;;;;;;;8.52;77.48;101750.88;5041893;28;20099;-66
2021/05/28 04:48:50;;;;;;;11.55;4.45;;;;;;;8.51;77.93;101746.53;5048307;28;20032;-66
2021/05/28 04:51:16;;;;;;;11.20;3.78;;;;;;;8.56;77.46;101745.19;5022532;28;20081;-66
2021/05/28 04:53:42;;;;;;;6.07;3.80;;;;;;;8.54;77.76;101751.91;5041732;28;20029;-67
2021/05/28 04:56:08;;;;;;;8.43;3.63;;;;;;;8.50;77.53;101759.25;5043426;28;20386;-67
2021/05/28 04:58:33;;;;;;;6.38;3.47;;;;;;;8.42;77.32;101756.94;5043055;28;20123;-66
2021/05/28 05:00:58;;;;;;;8.13;4.00;;;;;;;8.38;77.76;101761.72;5042748;28;20055;-67
2021/05/28 05:03:24;;;;;;;9.18;3.90;;;;;;;8.38;78.44;101765.19;5042632;28;20100;-67
2021/05/28 05:05:49;;;;;;;9.38;4.35;;;;;;;8.71;77.23;101765.97;5043932;28;20087;-67
2021/05/28 05:08:15;;;;;;;7.40;3.95;;;;;;;8.60;77.49;101764.28;5042316;28;20021;-67
2021/05/28 05:10:40;;;;;;;6.85;3.10;;;;;;;8.79;76.94;101763.09;5041701;28;20029;-66
2021/05/28 05:13:12;;;;;;;6.40;3.50;;;;;;;8.90;76.57;101762.22;5044145;28;20037;-67
2021/05/28 05:15:38;;;;;;;6.85;3.55;;;;;;;8.98;76.22;101755.97;5041361;28;20150;-67
2021/05/28 05:18:06;;;;;;;6.75;3.97;;;;;;;8.86;77.46;101763.69;5039360;28;20029;-66
2021/05/28 05:20:32;;;;;;;6.07;3.67;;;;;;;9.00;77.10;101759.53;5043275;28;20032;-67
2021/05/28 05:22:57;;;;;;;7.90;3.55;;;;;;;9.24;77.35;101763.78;5033337;28;20021;-66
2021/05/28 05:25:23;;;;;;;6.90;3.65;;;;;;;9.24;77.14;101759.56;5032056;28;20395;-66
2021/05/28 05:27:48;;;;;;;10.27;3.67;;;;;;;9.47;76.97;101762.91;5038482;28;20025;-66
2021/05/28 05:30:14;;;;;;;8.65;3.75;;;;;;;9.46;77.24;101769.69;5051903;28;20017;-66
2021/05/28 05:32:39;;;;;;;9.77;4.53;;;;;;;9.62;77.07;101768.25;5049572;28;20063;-66
2021/05/28 05:35:06;;;;;;;9.93;3.60;;;;;;;9.71;78.02;101773.13;5033124;28;20030;-66
2021/05/28 05:37:32;;;;;;;8.15;3.75;;;;;;;9.86;77.48;101774.22;5031545;28;20033;-66
2021/05/28 05:39:57;;;;;;;10.07;4.65;;;;;;;10.19;76.49;101769.66;5032349;28;20040;-67
2021/05/28 05:42:23;;;;;;;11.88;4.43;;;;;;;10.46;76.18;101785.22;5045481;28;20040;-66
2021/05/28 05:44:49;;;;;;;10.00;4.95;;;;;;;10.62;75.53;101786.25;5042599;28;20032;-67
2021/05/28 05:47:14;;;;;;;18.13;6.82;;;;;;;10.47;75.72;101789.59;5042052;28;20067;-67
2021/05/28 05:49:39;;;;;;;17.08;7.80;;;;;;;10.56;75.67;101797.03;5036035;28;20048;-67
2021/05/28 05:52:05;;;;;;;17.15;7.47;;;;;;;10.62;75.96;101796.56;5038895;28;20017;-67
2021/05/28 05:54:32;;;;;;;18.73;9.50;;;;;;;10.76;75.13;101790.66;5038941;28;20056;-67
2021/05/28 05:56:57;;;;;;;15.63;10.23;;;;;;;10.63;75.46;101790.63;5019862;28;20124;-66
2021/05/28 05:59:24;;;;;;;17.40;9.68;;;;;;;10.64;74.95;101794.97;5035782;28;20096;-67
2021/05/28 06:01:49;;;;;;;19.48;10.05;;;;;;;10.82;74.36;101791.06;5038896;28;20266;-67
2021/05/28 06:04:15;;;;;;;18.23;10.38;;;;;;;10.90;73.50;101798.41;5044937;28;20601;-67
2021/05/28 06:06:40;;;;;;;18.70;9.75;;;;;;;10.98;73.33;101802.38;5047790;28;20029;-67
2021/05/28 06:09:06;;;;;;;22.70;11.10;;;;;;;11.14;73.13;101809.44;5042561;28;20163;-67
2021/05/28 06:11:32;;;;;;;23.35;11.48;;;;;;;11.03;72.16;101806.16;5041172;28;20029;-67
2021/05/28 06:13:58;;;;;;;19.60;11.15;;;;;;;11.16;72.23;101807.00;5040253;28;20484;-66
2021/05/28 06:16:23;;;;;;;19.35;11.90;;;;;;;11.26;71.23;101809.38;5040521;28;20029;-66
2021/05/28 06:18:49;;;;;;;20.50;11.27;;;;;;;11.39;71.14;101811.94;5046870;28;20031;-66
2021/05/28 06:21:14;;;;;;;18.83;10.75;;;;;;;11.64;70.66;101802.28;5047124;28;20025;-67
2021/05/28 06:23:40;;;;;;;18.60;8.70;;;;;;;11.66;69.78;101818.75;5038417;28;20028;-68
2021/05/28 06:26:05;;;;;;;13.30;7.90;;;;;;;11.78;69.50;101818.66;5038519;28;20025;-67
2021/05/28 06:28:31;;;;;;;16.23;7.75;;;;;;;11.54;70.23;101824.94;5039845;28;20033;-67
2021/05/28 06:30:56;;;;;;;11.98;7.28;;;;;;;11.27;70.58;101830.88;5021609;28;20635;-68
2021/05/28 06:33:22;;;;;;;9.95;6.82;;;;;;;11.18;71.39;101831.19;5039049;28;20021;-68
2021/05/28 06:35:47;;;;;;;15.85;7.05;;;;;;;11.23;70.36;101824.66;5038200;28;20048;-68
2021/05/28 06:38:13;;;;;;;10.05;5.93;;;;;;;11.15;70.35;101836.16;5039617;28;20480;-67
2021/05/28 06:40:39;;;;;;;12.68;6.78;;;;;;;11.09;69.91;101837.50;5038451;28;20029;-67
2021/05/28 06:43:04;;;;;;;9.93;5.75;;;;;;;10.93;70.89;101829.53;5037633;28;20097;-67
2021/05/28 06:45:30;;;;;;;10.48;5.80;;;;;;;10.95;70.50;101827.97;5037567;28;20439;-68
2021/05/28 06:47:56;;;;;;;8.80;5.45;;;;;;;11.13;69.18;101822.22;5034779;28;20022;-69
2021/05/28 06:50:22;;;;;;;11.55;5.90;;;;;;;11.26;68.81;101830.00;5035400;28;20032;-68
2021/05/28 06:52:47;;;;;;;12.98;5.68;;;;;;;11.43;68.34;101830.22;5035628;28;20032;-68
2021/05/28 06:55:14;;;;;;;12.52;6.32;;;;;;;11.43;68.29;101833.66;5037899;28;20035;-68
2021/05/28 06:57:40;;;;;;;9.25;4.82;;;;;;;11.32;68.85;101838.16;5041032;28;20032;-68
2021/05/28 07:00:08;;;;;;;10.00;5.38;;;;;;;11.26;69.30;101845.47;5020937;28;20032;-68
2021/05/28 07:02:34;;;;;;;11.20;6.10;;;;;;;11.13;69.47;101853.19;5019036;28;20120;-68
2021/05/28 07:05:00;;;;;;;10.52;5.47;;;;;;;11.10;70.26;101848.72;5036020;28;20030;-68
2021/05/28 07:07:53;;;;;;;10.40;5.70;;;;;;;11.10;70.59;101859.03;5039908;28;20042;-68
2021/05/28 07:10:19;;;;;;;11.55;5.57;;;;;;;11.29;69.86;101861.16;5046746;28;20115;-68
2021/05/28 07:12:45;;;;;;;12.73;5.72;;;;;;;11.43;69.37;101868.91;5043040;28;20033;-67
2021/05/28 07:15:11;;;;;;;10.52;6.03;;;;;;;11.39;68.56;101858.38;5043057;28;20032;-68
2021/05/28 07:17:37;;;;;;;16.90;7.15;;;;;;;11.02;69.33;101866.25;5045860;28;20027;-69
2021/05/28 07:20:04;;;;;;;14.80;7.20;;;;;;;11.21;68.92;101868.38;5043154;28;20104;-68
2021/05/28 07:22:30;;;;;;;14.15;7.38;;;;;;;11.25;69.35;101869.50;5044324;28;20039;-68
2021/05/28 07:24:55;;;;;;;18.40;8.40;;;;;;;11.48;68.32;101867.53;5044666;28;20021;-68
2021/05/28 07:27:21;;;;;;;15.85;8.15;;;;;;;11.48;67.90;101872.69;5044359;28;20013;-68
2021/05/28 07:29:47;;;;;;;15.73;8.95;;;;;;;11.47;67.96;101876.06;5044724;28;20044;-68
2021/05/28 07:32:12;;;;;;;17.60;9.63;;;;;;;11.47;67.94;101876.06;5044159;28;20025;-69
2021/05/28 07:34:39;;;;;;;18.88;9.90;;;;;;;11.05;67.93;101876.75;5042831;28;20029;-69
2021/05/28 07:37:05;;;;;;;17.15;10.88;;;;;;;11.42;69.03;101882.59;5044342;28;20071;-69
2021/05/28 07:39:31;;;;;;;19.65;12.13;;;;;;;11.52;69.32;101880.69;5043235;28;20434;-69
2021/05/28 07:41:56;;;;;;;20.85;11.10;;;;;;;11.66;68.94;101879.03;5042666;28;20057;-69
2021/05/28 07:44:22;;;;;;;17.80;11.57;;;;;;;11.74;67.88;101881.22;5045597;28;20048;-69
2021/05/28 07:46:48;;;;;;;16.85;10.82;;;;;;;11.79;67.69;101874.66;5046223;28;20386;-67
2021/05/28 07:49:14;;;;;;;16.77;10.43;;;;;;;11.83;68.42;101882.72;5042144;28;20025;-68
2021/05/28 07:51:40;;;;;;;21.25;11.52;;;;;;;11.91;66.40;101875.44;5040831;28;20028;-68
2021/05/28 07:54:06;;;;;;;17.48;10.85;;;;;;;12.04;66.10;101876.25;5044531;28;20104;-68
2021/05/28 07:56:33;;;;;;;19.38;10.02;;;;;;;11.95;66.48;101872.25;5042038;28;20021;-68
2021/05/28 07:58:58;;;;;;;19.45;9.52;;;;;;;12.03;67.25;101879.63;5045762;28;20417;-67
2021/05/28 08:01:24;;;;;;;17.50;10.50;;;;;;;12.35;66.32;101878.16;5042870;28;20109;-68
2021/05/28 08:03:50;;;;;;;20.52;10.05;;;;;;;12.57;65.89;101880.34;5043326;28;20485;-69
2021/05/28 08:06:15;;;;;;;15.27;9.45;;;;;;;12.74;64.94;101883.97;5045810;28;20379;-68
2021/05/28 08:08:40;;;;;;;15.02;9.20;;;;;;;12.82;64.95;101882.75;5044389;28;20032;-69
2021/05/28 08:11:07;;;;;;;18.00;8.82;;;;;;;12.79;63.27;101877.38;5039516;28;20056;-68
2021/05/28 08:13:33;;;;;;;13.77;7.97;;;;;;;12.66;65.40;101885.22;5036860;28;20045;-69
2021/05/28 08:15:59;;;;;;;12.18;8.05;;;;;;;12.83;64.34;101879.34;5032085;28;20025;-69
2021/05/28 08:18:27;;;;;;;15.45;8.30;;;;;;;13.20;63.20;101884.91;5048925;28;20021;-68
2021/05/28 08:20:53;;;;;;;21.70;8.73;;;;;;;13.22;62.06;101888.47;5042833;28;20024;-70
2021/05/28 08:23:19;;;;;;;16.27;8.35;;;;;;;13.11;62.00;101886.16;5039666;28;20108;-69
2021/05/28 08:25:44;;;;;;;17.00;7.75;;;;;;;13.07;63.41;101881.59;5039646;28;20105;-67
2021/05/28 08:28:09;;;;;;;12.07;6.85;;;;;;;12.92;62.52;101878.13;5040663;28;20024;-68
2021/05/28 08:30:35;;;;;;;10.77;6.47;;;;;;;13.50;61.35;101875.47;5039645;28;20061;-68
2021/05/28 08:33:00;;;;;;;12.55;5.65;;;;;;;13.77;60.72;101884.72;5039382;28;20024;-68
2021/05/28 08:35:26;;;;;;;12.02;6.53;;;;;;;14.19;59.42;101885.28;5040475;28;20529;-68
2021/05/28 08:37:51;;;;;;;11.55;5.82;;;;;;;13.91;60.01;101888.97;5038486;28;20033;-67
2021/05/28 08:40:18;;;;;;;15.10;6.07;;;;;;;13.37;59.40;101891.97;5046579;28;20486;-67
2021/05/28 08:42:44;;;;;;;14.70;5.72;;;;;;;13.43;60.51;101894.97;5049256;28;20028;-68
2021/05/28 08:45:10;;;;;;;14.02;5.53;;;;;;;13.87;59.29;101902.56;5047686;28;20009;-69
2021/05/28 08:47:39;;;;;;;12.35;5.88;;;;;;;14.13;59.58;101890.16;5046142;28;20021;-69
2021/05/28 08:50:05;;;;;;;10.43;5.73;;;;;;;13.81;60.05;101902.22;5021720;28;20021;-68
2021/05/28 08:52:31;;;;;;;10.73;5.05;;;;;;;14.36;58.54;101890.53;5036392;28;20752;-68
2021/05/28 08:54:56;;;;;;;14.63;5.97;;;;;;;15.34;56.01;101891.22;5038013;28;20067;-68
2021/05/28 08:57:22;;;;;;;11.80;5.60;;;;;;;15.02;55.40;101893.09;5041071;28;20044;-69
2021/05/28 08:59:49;;;;;;;14.63;5.50;;;;;;;14.41;57.04;101891.66;5041691;28;20454;-67
2021/05/28 09:02:32;;;;;;;12.50;5.68;;;;;;;13.96;59.10;101892.72;5031489;28;20033;-68
2021/05/28 09:05:16;;;;;;;13.82;6.30;;;;;;;13.81;59.76;101897.94;5043422;28;20149;-69
2021/05/28 09:07:59;;;;;;;11.35;5.28;;;;;;;13.54;61.38;101892.09;5038289;28;20021;-68
2021/05/28 09:10:36;;;;;;;11.57;5.63;;;;;;;13.57;61.68;101900.03;5041705;28;20471;-69
2021/05/28 09:13:10;;;;;;;10.93;5.20;;;;;;;13.84;60.93;101897.22;5043650;28;20542;-69
2021/05/28 09:15:36;;;;;;;14.02;5.30;;;;;;;14.40;59.32;101892.47;5042175;28;20509;-68
2021/05/28 09:18:02;;;;;;;11.00;4.90;;;;;;;14.86;58.33;101894.91;5040677;28;20109;-70
2021/05/28 09:20:27;;;;;;;9.38;5.05;;;;;;;16.08;54.63;101891.34;5042806;28;20048;-68
2021/05/28 09:23:14;;;;;;;11.05;4.88;;;;;;;15.75;56.12;101889.78;5041930;28;20021;-68
2021/05/28 09:26:02;;;;;;;14.93;5.28;;;;;;;15.15;56.55;101879.94;5042649;28;20009;-70
2021/05/28 09:28:30;;;;;;;11.55;5.97;;;;;;;15.72;55.25;101876.66;5039851;28;20021;-68
2021/05/28 09:31:01;;;;;;;8.15;5.20;;;;;;;17.79;50.63;101869.94;5040569;28;20024;-68
2021/05/28 09:33:31;;;;;;;12.98;5.28;;;;;;;19.95;45.93;101882.69;5040958;28;20018;-69
2021/05/28 09:36:06;;;;;;;9.90;4.63;;;;;;;18.43;47.80;101874.97;5040408;28;20438;-69
2021/05/28 09:38:31;;;;;;;10.52;4.25;;;;;;;17.33;50.29;101884.63;5042105;28;20021;-69
2021/05/28 09:40:57;;;;;;;10.32;4.70;;;;;;;16.42;53.14;101879.88;5040922;28;20536;-70
2021/05/28 09:43:24;;;;;;;12.73;5.13;;;;;;;15.80;54.79;101881.31;5041743;28;20036;-70
2021/05/28 09:45:49;;;;;;;12.85;5.40;;;;;;;15.65;55.63;101882.38;5041909;28;20020;-70
2021/05/28 09:48:15;;;;;;;8.32;4.35;;;;;;;15.35;55.04;101882.63;5043692;28;20021;-69
2021/05/28 09:50:44;;;;;;;9.95;4.68;;;;;;;15.25;56.15;101880.38;5043180;28;20104;-69
2021/05/28 09:53:31;;;;;;;9.82;4.72;;;;;;;15.03;57.25;101884.50;5041578;28;20025;-68
2021/05/28 09:55:59;;;;;;;8.63;4.53;;;;;;;14.74;57.78;101886.50;5042483;28;20433;-69
2021/05/28 09:58:25;;;;;;;9.18;5.13;;;;;;;14.77;58.53;101884.06;5041428;28;20078;-69
2021/05/28 10:00:51;;;;;;;10.00;4.57;;;;;;;14.56;59.71;101876.91;5034730;28;20028;-70
2021/05/28 10:03:25;;;;;;;7.50;4.38;;;;;;;14.44;59.14;101882.34;5031652;28;20032;-69
2021/05/28 10:05:58;;;;;;;13.68;4.90;;;;;;;14.58;58.96;101885.66;5031570;28;20022;-69
2021/05/28 10:08:27;;;;;;;9.48;4.68;;;;;;;15.10;58.53;101881.41;5049485;28;20024;-69
2021/05/28 10:10:54;;;;;;;14.33;4.67;;;;;;;15.36;56.97;101884.41;5051629;28;20028;-69
2021/05/28 10:13:21;;;;;;;16.30;5.78;;;;;;;14.95;58.77;101875.44;5051332;28;20041;-69
2021/05/28 10:15:52;;;;;;;12.52;5.72;;;;;;;15.27;57.59;101878.75;5042063;28;20029;-69
2021/05/28 10:18:18;;;;;;;15.05;5.07;;;;;;;16.55;55.77;101881.31;5048339;28;20031;-68
2021/05/28 10:20:47;;;;;;;10.77;4.97;;;;;;;20.35;44.01;101873.38;5051083;28;20060;-67
2021/05/28 10:23:15;;;;;;;13.70;5.63;;;;;;;21.36;41.85;101865.56;5034564;28;20082;-70
2021/05/28 10:25:41;;;;;;;9.07;5.10;;;;;;;22.36;40.00;101873.88;5044881;28;20025;-69
2021/05/28 10:28:21;;;;;;;11.68;5.30;;;;;;;25.09;34.30;101867.31;5026950;28;20024;-70
2021/05/28 10:30:51;;;;;;;11.73;5.43;;;;;;;28.36;27.30;101868.75;5041441;28;20021;-68
2021/05/28 10:33:24;;;;;;;10.63;5.15;;;;;;;24.66;33.48;101866.88;5040380;28;20490;-68
2021/05/28 10:35:56;;;;;;;13.40;5.35;;;;;;;21.89;39.73;101867.69;5040880;28;20025;-69
2021/05/28 10:38:31;;;;;;;9.85;4.70;;;;;;;26.62;31.33;101863.72;5041779;28;20023;-69
2021/05/28 10:41:00;;;;;;;9.50;4.32;;;;;;;23.81;35.56;101858.81;5041669;28;20032;-69
2021/05/28 10:43:26;;;;;;;11.00;5.03;;;;;;;20.93;42.61;101860.16;5041256;28;20028;-69
2021/05/28 10:46:05;;;;;;;12.75;4.30;;;;;;;20.67;43.15;101862.91;5041841;28;20024;-69
2021/05/28 10:48:37;;;;;;;12.57;4.77;;;;;;;20.30;42.84;101856.66;5047122;28;20023;-70
2021/05/28 10:51:07;;;;;;;11.80;4.93;;;;;;;19.76;43.53;101845.50;5046311;28;20018;-69
2021/05/28 10:53:33;;;;;;;9.52;4.47;;;;;;;18.46;47.96;101849.91;5043913;28;20071;-68
2021/05/28 10:56:01;;;;;;;11.65;5.65;;;;;;;17.45;51.87;101848.66;5044823;28;20025;-69
2021/05/28 10:58:52;;;;;;;10.60;4.80;;;;;;;17.18;51.21;101849.31;5045382;28;20025;-68
2021/05/28 11:01:42;;;;;;;10.85;4.75;;;;;;;17.33;51.66;101853.38;5045452;28;20386;-68
2021/05/28 11:04:12;;;;;;;7.35;4.00;;;;;;;17.11;51.60;101857.69;5045891;28;20052;-69
2021/05/28 11:06:56;;;;;;;11.00;4.88;;;;;;;17.68;50.99;101848.72;5047049;28;20068;-71
2021/05/28 11:09:34;;;;;;;11.98;4.57;;;;;;;17.74;50.35;101846.34;5045522;28;20021;-70
2021/05/28 11:12:00;;;;;;;10.85;3.97;;;;;;;16.82;52.06;101844.31;5045089;28;20329;-70
2021/05/28 11:14:26;;;;;;;8.95;4.18;;;;;;;16.29;54.48;101851.53;5043802;28;20101;-70
2021/05/28 11:16:52;;;;;;;12.70;4.32;;;;;;;16.09;54.58;101853.22;5043256;28;20021;-68
2021/05/28 11:19:30;;;;;;;10.03;4.53;;;;;;;15.62;56.77;101857.13;5043520;28;20025;-70
2021/05/28 11:22:00;;;;;;;12.88;4.80;;;;;;;15.41;58.64;101864.78;5042541;28;20026;-70
2021/05/28 11:24:49;;;;;;;10.75;4.78;;;;;;;15.35;58.10;101859.25;5043256;28;20009;-69